JBU7532 KLAS-KSAN
Flight info
| Callsign | JBU7532 |
|---|---|
| Flight time | 0h 37m |
| Altitude | 30000 |
| Route | RADYR2 LVELL LUCKI1 |
| Aircraft | A20N/M-SDE2E3FGHIRWXY/LB1 |
Departure
| Time | 2026-05-07 20:40 |
|---|---|
| Airport | Harry Reid International Airport (KLAS) |
Arrival
| Time | 2026-05-07 21:17 |
|---|---|
| Airport | San Diego International Airport (KSAN) |
| Time | Latitude | Longitude | Altitude | Speed | Heading |
|---|---|---|---|---|---|
| 2026-05-07 20:20 | 36.08258 | -115.15344 | 2136 ft | 0 kts | 64° |
| 2026-05-07 20:28 | 36.08257 | -115.15348 | 2137 ft | 5 kts | 64° |
| 2026-05-07 20:28 | 36.08240 | -115.15392 | 2140 ft | 5 kts | 70° |
| 2026-05-07 20:28 | 36.08237 | -115.15437 | 2142 ft | 5 kts | 113° |
| 2026-05-07 20:29 | 36.08245 | -115.15452 | 2141 ft | 0 kts | 152° |
| 2026-05-07 20:30 | 36.08246 | -115.15452 | 2141 ft | 0 kts | 151° |
| 2026-05-07 20:35 | 36.08167 | -115.15399 | 2143 ft | 20 kts | 148° |
| 2026-05-07 20:36 | 36.08090 | -115.15199 | 2142 ft | 30 kts | 102° |
| 2026-05-07 20:36 | 36.07953 | -115.15097 | 2146 ft | 20 kts | 190° |
| 2026-05-07 20:36 | 36.07818 | -115.15108 | 2147 ft | 19 kts | 162° |
| 2026-05-07 20:36 | 36.07737 | -115.14984 | 2144 ft | 22 kts | 98° |
| 2026-05-07 20:37 | 36.07773 | -115.14657 | 2127 ft | 49 kts | 92° |
| 2026-05-07 20:37 | 36.07751 | -115.14235 | 2111 ft | 48 kts | 90° |
| 2026-05-07 20:37 | 36.07753 | -115.13851 | 2099 ft | 43 kts | 90° |
| 2026-05-07 20:37 | 36.07753 | -115.13465 | 2084 ft | 47 kts | 90° |
| 2026-05-07 20:38 | 36.07753 | -115.13042 | 2062 ft | 51 kts | 89° |
| 2026-05-07 20:38 | 36.07753 | -115.12663 | 2043 ft | 38 kts | 90° |
| 2026-05-07 20:38 | 36.07758 | -115.12369 | 2041 ft | 31 kts | 86° |
| 2026-05-07 20:38 | 36.07750 | -115.12177 | 2028 ft | 20 kts | 107° |
| 2026-05-07 20:39 | 36.07631 | -115.12085 | 2031 ft | 21 kts | 187° |
| 2026-05-07 20:39 | 36.07602 | -115.12097 | 2033 ft | 7 kts | 215° |
| 2026-05-07 20:39 | 36.07648 | -115.12039 | 2030 ft | 10 kts | 241° |
| 2026-05-07 20:39 | 36.07637 | -115.12425 | 2041 ft | 103 kts | 270° |
| 2026-05-07 20:40 | 36.07634 | -115.13696 | 2094 ft | 188 kts | 269° |
| 2026-05-07 20:40 | 36.07645 | -115.15433 | 2770 ft | 205 kts | 269° |
| 2026-05-07 20:40 | 36.07634 | -115.17247 | 3588 ft | 219 kts | 270° |
| 2026-05-07 20:40 | 36.07632 | -115.19222 | 4249 ft | 244 kts | 269° |
| 2026-05-07 20:41 | 36.07527 | -115.21395 | 5098 ft | 258 kts | 260° |
| 2026-05-07 20:41 | 36.07214 | -115.23502 | 5897 ft | 273 kts | 256° |
| 2026-05-07 20:41 | 36.06490 | -115.25488 | 6420 ft | 277 kts | 233° |
| 2026-05-07 20:41 | 36.05108 | -115.26961 | 6866 ft | 281 kts | 208° |
| 2026-05-07 20:42 | 36.03299 | -115.27863 | 7339 ft | 283 kts | 199° |
| 2026-05-07 20:42 | 36.01418 | -115.28603 | 7824 ft | 284 kts | 198° |
| 2026-05-07 20:42 | 35.99694 | -115.29273 | 8295 ft | 288 kts | 198° |
| 2026-05-07 20:42 | 35.97763 | -115.29793 | 8778 ft | 290 kts | 191° |
| 2026-05-07 20:43 | 35.95988 | -115.30183 | 9225 ft | 303 kts | 192° |
| 2026-05-07 20:43 | 35.93838 | -115.30695 | 9880 ft | 328 kts | 192° |
| 2026-05-07 20:43 | 35.91669 | -115.31228 | 10547 ft | 346 kts | 192° |
| 2026-05-07 20:43 | 35.89273 | -115.31821 | 11261 ft | 363 kts | 192° |
| 2026-05-07 20:44 | 35.86746 | -115.32446 | 11998 ft | 378 kts | 192° |
| 2026-05-07 20:44 | 35.84145 | -115.33089 | 12739 ft | 385 kts | 191° |
| 2026-05-07 20:44 | 35.81486 | -115.33745 | 13505 ft | 395 kts | 191° |
| 2026-05-07 20:44 | 35.78758 | -115.34417 | 14245 ft | 406 kts | 191° |
| 2026-05-07 20:45 | 35.75952 | -115.35108 | 14947 ft | 417 kts | 191° |
| 2026-05-07 20:45 | 35.73069 | -115.35816 | 15672 ft | 427 kts | 191° |
| 2026-05-07 20:45 | 35.70127 | -115.36514 | 16408 ft | 436 kts | 191° |
| 2026-05-07 20:45 | 35.67215 | -115.37512 | 17152 ft | 443 kts | 200° |
| 2026-05-07 20:46 | 35.64274 | -115.38865 | 17944 ft | 450 kts | 201° |
| 2026-05-07 20:46 | 35.61336 | -115.40281 | 18682 ft | 456 kts | 202° |
| 2026-05-07 20:46 | 35.58383 | -115.41768 | 19381 ft | 462 kts | 202° |
| 2026-05-07 20:46 | 35.55399 | -115.43310 | 20113 ft | 466 kts | 203° |
| 2026-05-07 20:47 | 35.52479 | -115.44836 | 20817 ft | 470 kts | 203° |
| 2026-05-07 20:47 | 35.49427 | -115.46437 | 21577 ft | 474 kts | 203° |
| 2026-05-07 20:47 | 35.46389 | -115.48029 | 22337 ft | 477 kts | 203° |
| 2026-05-07 20:47 | 35.43315 | -115.49638 | 23132 ft | 480 kts | 203° |
| 2026-05-07 20:48 | 35.40244 | -115.51243 | 23884 ft | 482 kts | 204° |
| 2026-05-07 20:48 | 35.37141 | -115.52863 | 24571 ft | 484 kts | 203° |
| 2026-05-07 20:48 | 35.34048 | -115.54475 | 25273 ft | 485 kts | 203° |
| 2026-05-07 20:48 | 35.30937 | -115.56096 | 25976 ft | 485 kts | 203° |
| 2026-05-07 20:49 | 35.27835 | -115.57709 | 26706 ft | 485 kts | 203° |
| 2026-05-07 20:49 | 35.24769 | -115.59303 | 27445 ft | 484 kts | 203° |
| 2026-05-07 20:49 | 35.21673 | -115.60911 | 28219 ft | 482 kts | 203° |
| 2026-05-07 20:49 | 35.18588 | -115.62512 | 29012 ft | 480 kts | 203° |
| 2026-05-07 20:50 | 35.15564 | -115.64081 | 29701 ft | 481 kts | 203° |
| 2026-05-07 20:50 | 35.12409 | -115.65716 | 29940 ft | 492 kts | 203° |
| 2026-05-07 20:50 | 35.09262 | -115.67345 | 29960 ft | 505 kts | 203° |
| 2026-05-07 20:51 | 35.02720 | -115.70727 | 29952 ft | 511 kts | 203° |
| 2026-05-07 20:51 | 34.96166 | -115.74109 | 29946 ft | 511 kts | 203° |
| 2026-05-07 20:52 | 34.89614 | -115.77485 | 29938 ft | 511 kts | 203° |
| 2026-05-07 20:52 | 34.83059 | -115.80856 | 29930 ft | 511 kts | 203° |
| 2026-05-07 20:53 | 34.76551 | -115.84199 | 29924 ft | 511 kts | 203° |
| 2026-05-07 20:53 | 34.69989 | -115.87562 | 29922 ft | 511 kts | 203° |
| 2026-05-07 20:54 | 34.63442 | -115.90911 | 29921 ft | 512 kts | 203° |
| 2026-05-07 20:54 | 34.56878 | -115.94264 | 29929 ft | 511 kts | 203° |
| 2026-05-07 20:55 | 34.50325 | -115.97606 | 29959 ft | 511 kts | 203° |
| 2026-05-07 20:55 | 34.43802 | -116.00927 | 29989 ft | 512 kts | 202° |
| 2026-05-07 20:56 | 34.37241 | -116.04262 | 30017 ft | 512 kts | 202° |
| 2026-05-07 20:56 | 34.30675 | -116.07593 | 30032 ft | 512 kts | 202° |
| 2026-05-07 20:57 | 34.24111 | -116.10918 | 30032 ft | 511 kts | 202° |
| 2026-05-07 20:57 | 34.17542 | -116.14239 | 30021 ft | 511 kts | 202° |
| 2026-05-07 20:58 | 34.10986 | -116.17548 | 29989 ft | 511 kts | 202° |
| 2026-05-07 20:58 | 34.04472 | -116.20831 | 29959 ft | 511 kts | 202° |
| 2026-05-07 20:59 | 33.97911 | -116.24132 | 29894 ft | 510 kts | 202° |
| 2026-05-07 20:59 | 33.91356 | -116.27424 | 29893 ft | 510 kts | 202° |
| 2026-05-07 21:00 | 33.84808 | -116.30708 | 29882 ft | 510 kts | 202° |
| 2026-05-07 21:00 | 33.81549 | -116.32339 | 29655 ft | 501 kts | 202° |
| 2026-05-07 21:00 | 33.78365 | -116.33932 | 29156 ft | 490 kts | 202° |
| 2026-05-07 21:00 | 33.75239 | -116.35496 | 28622 ft | 484 kts | 202° |
| 2026-05-07 21:01 | 33.72174 | -116.37027 | 28090 ft | 482 kts | 202° |
| 2026-05-07 21:01 | 33.69089 | -116.38567 | 27580 ft | 479 kts | 202° |
| 2026-05-07 21:01 | 33.66027 | -116.40095 | 27075 ft | 476 kts | 202° |
| 2026-05-07 21:01 | 33.62978 | -116.41614 | 26579 ft | 472 kts | 202° |
| 2026-05-07 21:02 | 33.59959 | -116.43118 | 26070 ft | 468 kts | 202° |
| 2026-05-07 21:02 | 33.56964 | -116.44608 | 25599 ft | 466 kts | 202° |
| 2026-05-07 21:02 | 33.53973 | -116.46096 | 25131 ft | 463 kts | 202° |
| 2026-05-07 21:02 | 33.51004 | -116.47570 | 24667 ft | 460 kts | 202° |
| 2026-05-07 21:03 | 33.48060 | -116.49032 | 24186 ft | 457 kts | 202° |
| 2026-05-07 21:03 | 33.45173 | -116.50465 | 23551 ft | 454 kts | 202° |
| 2026-05-07 21:03 | 33.42269 | -116.51905 | 22768 ft | 449 kts | 202° |
| 2026-05-07 21:03 | 33.39401 | -116.53328 | 21980 ft | 444 kts | 202° |
| 2026-05-07 21:04 | 33.36569 | -116.54731 | 21241 ft | 439 kts | 201° |
| 2026-05-07 21:04 | 33.33761 | -116.56121 | 20501 ft | 434 kts | 201° |
| 2026-05-07 21:04 | 33.30993 | -116.57491 | 19792 ft | 429 kts | 201° |
| 2026-05-07 21:04 | 33.28249 | -116.58849 | 19084 ft | 424 kts | 201° |
| 2026-05-07 21:05 | 33.25545 | -116.60186 | 18404 ft | 419 kts | 201° |
| 2026-05-07 21:05 | 33.22859 | -116.61512 | 17651 ft | 414 kts | 201° |
| 2026-05-07 21:05 | 33.20212 | -116.62815 | 16892 ft | 410 kts | 201° |
| 2026-05-07 21:05 | 33.17587 | -116.64107 | 16150 ft | 406 kts | 201° |
| 2026-05-07 21:06 | 33.15024 | -116.65368 | 15436 ft | 401 kts | 201° |
| 2026-05-07 21:06 | 33.12464 | -116.66628 | 14736 ft | 397 kts | 201° |
| 2026-05-07 21:06 | 33.09915 | -116.67883 | 14033 ft | 392 kts | 201° |
| 2026-05-07 21:06 | 33.07442 | -116.69099 | 13277 ft | 378 kts | 201° |
| 2026-05-07 21:07 | 33.05041 | -116.70281 | 12526 ft | 367 kts | 201° |
| 2026-05-07 21:07 | 33.02716 | -116.71423 | 11784 ft | 357 kts | 201° |
| 2026-05-07 21:07 | 33.00455 | -116.72532 | 11061 ft | 348 kts | 201° |
| 2026-05-07 21:07 | 32.98782 | -116.73353 | 10522 ft | 342 kts | 201° |
| 2026-05-07 21:08 | 32.96609 | -116.74418 | 9813 ft | 335 kts | 201° |
| 2026-05-07 21:08 | 32.94472 | -116.75462 | 9046 ft | 329 kts | 201° |
| 2026-05-07 21:08 | 32.92369 | -116.76485 | 8313 ft | 324 kts | 202° |
| 2026-05-07 21:08 | 32.90348 | -116.77468 | 7597 ft | 319 kts | 202° |
| 2026-05-07 21:09 | 32.88513 | -116.78361 | 6961 ft | 315 kts | 203° |
| 2026-05-07 21:09 | 32.86469 | -116.79355 | 6241 ft | 311 kts | 204° |
| 2026-05-07 21:09 | 32.84746 | -116.80196 | 5598 ft | 307 kts | 204° |
| 2026-05-07 21:09 | 32.82805 | -116.81143 | 5115 ft | 296 kts | 204° |
| 2026-05-07 21:10 | 32.80928 | -116.82062 | 4619 ft | 287 kts | 204° |
| 2026-05-07 21:10 | 32.79106 | -116.82957 | 4132 ft | 279 kts | 204° |
| 2026-05-07 21:10 | 32.77352 | -116.83815 | 3791 ft | 266 kts | 204° |
| 2026-05-07 21:10 | 32.75702 | -116.84621 | 3704 ft | 244 kts | 204° |
| 2026-05-07 21:11 | 32.74197 | -116.85353 | 3693 ft | 225 kts | 204° |
| 2026-05-07 21:11 | 32.72743 | -116.86067 | 3701 ft | 229 kts | 204° |
| 2026-05-07 21:11 | 32.69709 | -116.87600 | 3714 ft | 253 kts | 212° |
| 2026-05-07 21:12 | 32.68491 | -116.89021 | 3719 ft | 244 kts | 242° |
| 2026-05-07 21:12 | 32.67896 | -116.90834 | 3715 ft | 229 kts | 253° |
| 2026-05-07 21:12 | 32.67420 | -116.92630 | 3520 ft | 229 kts | 260° |
| 2026-05-07 21:12 | 32.67380 | -116.94509 | 3260 ft | 228 kts | 281° |
| 2026-05-07 21:13 | 32.67818 | -116.96283 | 2994 ft | 222 kts | 288° |
| 2026-05-07 21:13 | 32.68266 | -116.98017 | 2705 ft | 215 kts | 287° |
| 2026-05-07 21:13 | 32.68663 | -116.99613 | 2520 ft | 185 kts | 287° |
| 2026-05-07 21:13 | 32.69032 | -117.01116 | 2272 ft | 193 kts | 286° |
| 2026-05-07 21:14 | 32.69404 | -117.02655 | 1997 ft | 193 kts | 285° |
| 2026-05-07 21:14 | 32.69765 | -117.04151 | 1705 ft | 179 kts | 284° |
| 2026-05-07 21:14 | 32.70075 | -117.05455 | 1488 ft | 162 kts | 284° |
| 2026-05-07 21:14 | 32.70375 | -117.06798 | 1442 ft | 172 kts | 283° |
| 2026-05-07 21:15 | 32.70672 | -117.08182 | 1388 ft | 174 kts | 284° |
| 2026-05-07 21:15 | 32.71022 | -117.09547 | 1205 ft | 170 kts | 287° |
| 2026-05-07 21:15 | 32.71380 | -117.10837 | 1113 ft | 159 kts | 286° |
| 2026-05-07 21:15 | 32.71693 | -117.12074 | 979 ft | 154 kts | 285° |
| 2026-05-07 21:16 | 32.71985 | -117.13310 | 892 ft | 155 kts | 285° |
| 2026-05-07 21:16 | 32.72281 | -117.14550 | 711 ft | 156 kts | 285° |
| 2026-05-07 21:16 | 32.72572 | -117.15793 | 540 ft | 156 kts | 285° |
| 2026-05-07 21:16 | 32.72872 | -117.16999 | 306 ft | 155 kts | 286° |
| 2026-05-07 21:17 | 32.73113 | -117.17947 | 112 ft | 134 kts | 287° |
| 2026-05-07 21:17 | 32.73342 | -117.18911 | 24 ft | 97 kts | 286° |
| 2026-05-07 21:17 | 32.73475 | -117.19459 | 26 ft | 49 kts | 287° |
| 2026-05-07 21:17 | 32.73529 | -117.19760 | 30 ft | 22 kts | 260° |
| 2026-05-07 21:18 | 32.73500 | -117.19866 | 28 ft | 14 kts | 250° |
| 2026-05-07 21:18 | 32.73494 | -117.19888 | 27 ft | 0 kts | 252° |
| 2026-05-07 21:18 | 32.73491 | -117.19899 | 27 ft | 13 kts | 251° |
| 2026-05-07 21:18 | 32.73409 | -117.20004 | 27 ft | 20 kts | 223° |